sensor_id;sensor_type;location;lat;lon;timestamp;P1;durP1;ratioP1;P2;durP2;ratioP2
39434;SDS011;66825;51.880;-0.518;2023-06-10T00:00:47;4.18;;;3.30;;
39434;SDS011;66825;51.880;-0.518;2023-06-10T00:03:13;4.35;;;3.53;;
39434;SDS011;66825;51.880;-0.518;2023-06-10T00:05:38;3.70;;;3.15;;
39434;SDS011;66825;51.880;-0.518;2023-06-10T00:08:04;3.65;;;3.17;;
39434;SDS011;66825;51.880;-0.518;2023-06-10T00:10:34;4.13;;;3.47;;
39434;SDS011;66825;51.880;-0.518;2023-06-10T00:13:01;3.70;;;3.40;;
39434;SDS011;66825;51.880;-0.518;2023-06-10T00:15:27;3.55;;;3.15;;
39434;SDS011;66825;51.880;-0.518;2023-06-10T00:17:53;4.05;;;3.35;;
39434;SDS011;66825;51.880;-0.518;2023-06-10T00:20:20;3.60;;;3.30;;
39434;SDS011;66825;51.880;-0.518;2023-06-10T00:22:49;3.88;;;3.33;;
39434;SDS011;66825;51.880;-0.518;2023-06-10T00:25:15;3.35;;;2.92;;
39434;SDS011;66825;51.880;-0.518;2023-06-10T00:27:40;3.78;;;3.42;;
39434;SDS011;66825;51.880;-0.518;2023-06-10T00:30:06;4.07;;;3.28;;
39434;SDS011;66825;51.880;-0.518;2023-06-10T00:32:33;4.15;;;3.20;;
39434;SDS011;66825;51.880;-0.518;2023-06-10T00:34:59;3.58;;;3.22;;
39434;SDS011;66825;51.880;-0.518;2023-06-10T00:37:24;4.43;;;3.45;;
39434;SDS011;66825;51.880;-0.518;2023-06-10T00:39:50;3.40;;;3.10;;
39434;SDS011;66825;51.880;-0.518;2023-06-10T00:42:16;3.80;;;3.38;;
39434;SDS011;66825;51.880;-0.518;2023-06-10T00:44:42;3.58;;;3.28;;
39434;SDS011;66825;51.880;-0.518;2023-06-10T00:47:07;3.95;;;3.40;;
39434;SDS011;66825;51.880;-0.518;2023-06-10T00:49:33;3.50;;;3.20;;
39434;SDS011;66825;51.880;-0.518;2023-06-10T00:51:59;4.13;;;3.40;;
39434;SDS011;66825;51.880;-0.518;2023-06-10T00:54:26;3.53;;;3.10;;
39434;SDS011;66825;51.880;-0.518;2023-06-10T00:56:52;3.58;;;3.20;;
39434;SDS011;66825;51.880;-0.518;2023-06-10T00:59:18;3.67;;;3.30;;
39434;SDS011;66825;51.880;-0.518;2023-06-10T01:01:45;3.83;;;3.40;;
39434;SDS011;66825;51.880;-0.518;2023-06-10T01:04:12;3.90;;;3.35;;
39434;SDS011;66825;51.880;-0.518;2023-06-10T01:06:47;3.50;;;3.20;;
39434;SDS011;66825;51.880;-0.518;2023-06-10T01:15:06;3.58;;;3.28;;
39434;SDS011;66825;51.880;-0.518;2023-06-10T01:17:37;4.07;;;3.25;;
39434;SDS011;66825;51.880;-0.518;2023-06-10T01:20:18;3.45;;;3.10;;
39434;SDS011;66825;51.880;-0.518;2023-06-10T01:22:44;3.53;;;3.10;;
39434;SDS011;66825;51.880;-0.518;2023-06-10T01:25:10;3.40;;;3.10;;
39434;SDS011;66825;51.880;-0.518;2023-06-10T01:27:37;3.80;;;3.40;;
39434;SDS011;66825;51.880;-0.518;2023-06-10T01:30:11;3.58;;;3.22;;
39434;SDS011;66825;51.880;-0.518;2023-06-10T01:32:48;3.33;;;3.03;;
39434;SDS011;66825;51.880;-0.518;2023-06-10T01:35:16;3.78;;;3.20;;
39434;SDS011;66825;51.880;-0.518;2023-06-10T01:37:43;3.97;;;3.28;;
39434;SDS011;66825;51.880;-0.518;2023-06-10T01:40:11;3.42;;;3.13;;
39434;SDS011;66825;51.880;-0.518;2023-06-10T01:42:37;3.53;;;3.10;;
39434;SDS011;66825;51.880;-0.518;2023-06-10T01:45:03;3.42;;;3.10;;
39434;SDS011;66825;51.880;-0.518;2023-06-10T01:47:29;3.40;;;3.10;;
39434;SDS011;66825;51.880;-0.518;2023-06-10T01:49:55;3.83;;;3.40;;
39434;SDS011;66825;51.880;-0.518;2023-06-10T01:52:20;3.83;;;3.20;;
39434;SDS011;66825;51.880;-0.518;2023-06-10T01:54:46;3.30;;;3.00;;
39434;SDS011;66825;51.880;-0.518;2023-06-10T01:57:11;3.90;;;3.50;;
39434;SDS011;66825;51.880;-0.518;2023-06-10T01:59:37;3.78;;;3.38;;
39434;SDS011;66825;51.880;-0.518;2023-06-10T02:02:03;4.43;;;3.15;;
39434;SDS011;66825;51.880;-0.518;2023-06-10T02:04:29;3.40;;;3.08;;
39434;SDS011;66825;51.880;-0.518;2023-06-10T02:06:55;3.53;;;3.22;;
39434;SDS011;66825;51.880;-0.518;2023-06-10T02:09:21;4.35;;;3.40;;
39434;SDS011;66825;51.880;-0.518;2023-06-10T02:11:48;3.30;;;3.00;;
39434;SDS011;66825;51.880;-0.518;2023-06-10T02:14:14;3.53;;;3.22;;
39434;SDS011;66825;51.880;-0.518;2023-06-10T02:16:39;3.42;;;3.13;;
39434;SDS011;66825;51.880;-0.518;2023-06-10T02:19:05;3.95;;;3.13;;
39434;SDS011;66825;51.880;-0.518;2023-06-10T02:21:31;3.22;;;2.90;;
39434;SDS011;66825;51.880;-0.518;2023-06-10T02:23:59;3.38;;;3.03;;
39434;SDS011;66825;51.880;-0.518;2023-06-10T02:26:25;4.15;;;3.50;;
39434;SDS011;66825;51.880;-0.518;2023-06-10T02:28:51;3.50;;;3.20;;
39434;SDS011;66825;51.880;-0.518;2023-06-10T02:31:17;3.97;;;3.13;;
39434;SDS011;66825;51.880;-0.518;2023-06-10T02:33:43;4.28;;;3.20;;
39434;SDS011;66825;51.880;-0.518;2023-06-10T02:36:09;3.50;;;3.20;;
39434;SDS011;66825;51.880;-0.518;2023-06-10T02:38:39;3.78;;;3.25;;
39434;SDS011;66825;51.880;-0.518;2023-06-10T02:41:05;3.35;;;3.00;;
39434;SDS011;66825;51.880;-0.518;2023-06-10T02:43:31;3.55;;;2.95;;
39434;SDS011;66825;51.880;-0.518;2023-06-10T02:45:56;3.55;;;3.10;;
39434;SDS011;66825;51.880;-0.518;2023-06-10T02:48:23;3.55;;;3.25;;
39434;SDS011;66825;51.880;-0.518;2023-06-10T02:50:49;3.47;;;3.17;;
39434;SDS011;66825;51.880;-0.518;2023-06-10T02:53:14;3.50;;;3.20;;
39434;SDS011;66825;51.880;-0.518;2023-06-10T02:55:40;4.40;;;3.33;;
39434;SDS011;66825;51.880;-0.518;2023-06-10T02:58:06;3.75;;;3.00;;
39434;SDS011;66825;51.880;-0.518;2023-06-10T03:00:32;3.47;;;3.17;;
39434;SDS011;66825;51.880;-0.518;2023-06-10T03:02:58;4.13;;;2.97;;
39434;SDS011;66825;51.880;-0.518;2023-06-10T03:05:25;3.53;;;3.10;;
39434;SDS011;66825;51.880;-0.518;2023-06-10T03:07:51;3.40;;;2.90;;
39434;SDS011;66825;51.880;-0.518;2023-06-10T03:10:16;3.72;;;3.00;;
39434;SDS011;66825;51.880;-0.518;2023-06-10T03:12:42;3.63;;;3.17;;
39434;SDS011;66825;51.880;-0.518;2023-06-10T03:15:07;3.08;;;2.78;;
39434;SDS011;66825;51.880;-0.518;2023-06-10T03:17:33;4.13;;;3.20;;
39434;SDS011;66825;51.880;-0.518;2023-06-10T03:19:58;3.83;;;3.10;;
39434;SDS011;66825;51.880;-0.518;2023-06-10T03:22:24;3.60;;;3.03;;
39434;SDS011;66825;51.880;-0.518;2023-06-10T03:24:49;3.40;;;3.10;;
39434;SDS011;66825;51.880;-0.518;2023-06-10T03:27:15;3.95;;;3.20;;
39434;SDS011;66825;51.880;-0.518;2023-06-10T03:29:41;3.60;;;2.90;;
39434;SDS011;66825;51.880;-0.518;2023-06-10T03:32:07;3.70;;;3.30;;
39434;SDS011;66825;51.880;-0.518;2023-06-10T03:34:33;3.90;;;3.20;;
39434;SDS011;66825;51.880;-0.518;2023-06-10T03:36:58;4.30;;;3.60;;
39434;SDS011;66825;51.880;-0.518;2023-06-10T03:39:25;3.55;;;3.20;;
39434;SDS011;66825;51.880;-0.518;2023-06-10T03:41:54;3.33;;;2.80;;
39434;SDS011;66825;51.880;-0.518;2023-06-10T03:44:21;3.70;;;3.10;;
39434;SDS011;66825;51.880;-0.518;2023-06-10T03:46:46;3.85;;;3.17;;
39434;SDS011;66825;51.880;-0.518;2023-06-10T03:49:12;3.35;;;2.92;;
39434;SDS011;66825;51.880;-0.518;2023-06-10T03:51:38;3.42;;;3.13;;
39434;SDS011;66825;51.880;-0.518;2023-06-10T03:54:03;4.00;;;3.03;;
39434;SDS011;66825;51.880;-0.518;2023-06-10T03:56:29;3.63;;;3.22;;
39434;SDS011;66825;51.880;-0.518;2023-06-10T03:58:54;3.55;;;3.20;;
39434;SDS011;66825;51.880;-0.518;2023-06-10T04:01:20;3.17;;;2.88;;
39434;SDS011;66825;51.880;-0.518;2023-06-10T04:03:46;3.95;;;3.17;;
39434;SDS011;66825;51.880;-0.518;2023-06-10T04:06:14;3.47;;;3.17;;
39434;SDS011;66825;51.880;-0.518;2023-06-10T04:08:41;3.35;;;3.05;;
39434;SDS011;66825;51.880;-0.518;2023-06-10T04:11:08;3.40;;;3.10;;
39434;SDS011;66825;51.880;-0.518;2023-06-10T04:13:33;3.03;;;2.72;;
39434;SDS011;66825;51.880;-0.518;2023-06-10T04:15:59;3.28;;;2.97;;
39434;SDS011;66825;51.880;-0.518;2023-06-10T04:18:25;3.03;;;2.72;;
39434;SDS011;66825;51.880;-0.518;2023-06-10T04:20:51;3.50;;;3.10;;
39434;SDS011;66825;51.880;-0.518;2023-06-10T04:23:16;3.67;;;3.20;;
39434;SDS011;66825;51.880;-0.518;2023-06-10T04:25:42;3.53;;;3.22;;
39434;SDS011;66825;51.880;-0.518;2023-06-10T04:28:07;3.47;;;3.05;;
39434;SDS011;66825;51.880;-0.518;2023-06-10T04:30:33;3.28;;;2.97;;
39434;SDS011;66825;51.880;-0.518;2023-06-10T04:32:58;3.50;;;3.20;;
39434;SDS011;66825;51.880;-0.518;2023-06-10T04:35:24;3.33;;;2.90;;
39434;SDS011;66825;51.880;-0.518;2023-06-10T04:37:53;4.43;;;3.40;;
39434;SDS011;66825;51.880;-0.518;2023-06-10T04:40:18;4.07;;;3.28;;
39434;SDS011;66825;51.880;-0.518;2023-06-10T04:42:44;3.15;;;2.85;;
39434;SDS011;66825;51.880;-0.518;2023-06-10T04:45:10;3.45;;;3.15;;
39434;SDS011;66825;51.880;-0.518;2023-06-10T04:47:36;3.80;;;3.30;;
39434;SDS011;66825;51.880;-0.518;2023-06-10T04:50:02;3.55;;;3.22;;
39434;SDS011;66825;51.880;-0.518;2023-06-10T04:52:30;3.45;;;3.13;;
39434;SDS011;66825;51.880;-0.518;2023-06-10T04:54:57;3.38;;;3.08;;
39434;SDS011;66825;51.880;-0.518;2023-06-10T04:57:23;3.72;;;3.30;;
39434;SDS011;66825;51.880;-0.518;2023-06-10T04:59:48;3.88;;;2.92;;
39434;SDS011;66825;51.880;-0.518;2023-06-10T05:02:14;3.38;;;3.08;;
39434;SDS011;66825;51.880;-0.518;2023-06-10T05:04:39;3.40;;;3.10;;
39434;SDS011;66825;51.880;-0.518;2023-06-10T05:07:05;3.45;;;2.97;;
39434;SDS011;66825;51.880;-0.518;2023-06-10T05:09:31;3.10;;;2.88;;
39434;SDS011;66825;51.880;-0.518;2023-06-10T05:11:56;3.30;;;3.00;;
39434;SDS011;66825;51.880;-0.518;2023-06-10T05:14:22;3.17;;;2.88;;
39434;SDS011;66825;51.880;-0.518;2023-06-10T05:16:47;3.80;;;3.42;;
39434;SDS011;66825;51.880;-0.518;2023-06-10T05:19:13;3.05;;;2.80;;
39434;SDS011;66825;51.880;-0.518;2023-06-10T05:21:39;3.75;;;3.20;;
39434;SDS011;66825;51.880;-0.518;2023-06-10T05:24:04;3.22;;;2.80;;
39434;SDS011;66825;51.880;-0.518;2023-06-10T05:26:30;3.30;;;3.00;;
39434;SDS011;66825;51.880;-0.518;2023-06-10T05:28:58;3.33;;;3.00;;
39434;SDS011;66825;51.880;-0.518;2023-06-10T05:31:23;3.58;;;3.28;;
39434;SDS011;66825;51.880;-0.518;2023-06-10T05:33:49;3.88;;;3.47;;
39434;SDS011;66825;51.880;-0.518;2023-06-10T05:36:15;3.13;;;2.83;;
39434;SDS011;66825;51.880;-0.518;2023-06-10T05:38:40;3.35;;;3.05;;
39434;SDS011;66825;51.880;-0.518;2023-06-10T05:41:06;3.72;;;3.10;;
39434;SDS011;66825;51.880;-0.518;2023-06-10T05:43:31;3.20;;;2.90;;
39434;SDS011;66825;51.880;-0.518;2023-06-10T05:45:57;3.50;;;3.10;;
39434;SDS011;66825;51.880;-0.518;2023-06-10T05:48:22;3.53;;;2.92;;
39434;SDS011;66825;51.880;-0.518;2023-06-10T05:50:48;3.35;;;3.05;;
39434;SDS011;66825;51.880;-0.518;2023-06-10T05:53:16;3.75;;;2.80;;
39434;SDS011;66825;51.880;-0.518;2023-06-10T05:55:42;3.50;;;3.17;;
39434;SDS011;66825;51.880;-0.518;2023-06-10T05:58:11;3.38;;;3.08;;
39434;SDS011;66825;51.880;-0.518;2023-06-10T06:00:38;3.60;;;3.10;;
39434;SDS011;66825;51.880;-0.518;2023-06-10T06:03:06;3.85;;;3.13;;
39434;SDS011;66825;51.880;-0.518;2023-06-10T06:05:35;3.80;;;3.10;;
39434;SDS011;66825;51.880;-0.518;2023-06-10T06:08:03;3.38;;;3.03;;
39434;SDS011;66825;51.880;-0.518;2023-06-10T06:10:31;3.75;;;2.92;;
39434;SDS011;66825;51.880;-0.518;2023-06-10T06:12:57;3.25;;;2.90;;
39434;SDS011;66825;51.880;-0.518;2023-06-10T06:15:22;3.72;;;3.33;;
39434;SDS011;66825;51.880;-0.518;2023-06-10T06:17:48;3.50;;;2.90;;
39434;SDS011;66825;51.880;-0.518;2023-06-10T06:20:13;3.50;;;3.00;;
39434;SDS011;66825;51.880;-0.518;2023-06-10T06:22:39;3.75;;;3.00;;
39434;SDS011;66825;51.880;-0.518;2023-06-10T06:25:05;3.80;;;3.22;;
39434;SDS011;66825;51.880;-0.518;2023-06-10T06:27:31;3.72;;;3.40;;
39434;SDS011;66825;51.880;-0.518;2023-06-10T06:29:56;3.60;;;3.30;;
39434;SDS011;66825;51.880;-0.518;2023-06-10T06:32:22;4.00;;;3.60;;
39434;SDS011;66825;51.880;-0.518;2023-06-10T06:34:48;3.40;;;2.97;;
39434;SDS011;66825;51.880;-0.518;2023-06-10T06:37:19;3.40;;;3.10;;
39434;SDS011;66825;51.880;-0.518;2023-06-10T06:39:46;3.40;;;3.10;;
39434;SDS011;66825;51.880;-0.518;2023-06-10T06:42:11;3.40;;;3.05;;
39434;SDS011;66825;51.880;-0.518;2023-06-10T06:44:36;3.47;;;3.17;;
39434;SDS011;66825;51.880;-0.518;2023-06-10T06:47:02;4.55;;;3.33;;
39434;SDS011;66825;51.880;-0.518;2023-06-10T06:49:28;3.75;;;3.35;;
39434;SDS011;66825;51.880;-0.518;2023-06-10T06:51:53;3.53;;;3.22;;
39434;SDS011;66825;51.880;-0.518;2023-06-10T06:54:18;3.10;;;2.80;;
39434;SDS011;66825;51.880;-0.518;2023-06-10T06:56:44;3.90;;;3.30;;
39434;SDS011;66825;51.880;-0.518;2023-06-10T06:59:09;3.17;;;2.88;;
39434;SDS011;66825;51.880;-0.518;2023-06-10T07:01:35;4.00;;;3.20;;
39434;SDS011;66825;51.880;-0.518;2023-06-10T07:04:01;3.20;;;2.90;;
39434;SDS011;66825;51.880;-0.518;2023-06-10T07:06:26;3.33;;;3.03;;
39434;SDS011;66825;51.880;-0.518;2023-06-10T07:08:51;3.72;;;3.17;;
39434;SDS011;66825;51.880;-0.518;2023-06-10T07:11:17;3.45;;;3.15;;
39434;SDS011;66825;51.880;-0.518;2023-06-10T07:13:43;3.47;;;3.17;;
39434;SDS011;66825;51.880;-0.518;2023-06-10T07:16:08;3.30;;;2.95;;
39434;SDS011;66825;51.880;-0.518;2023-06-10T07:18:33;4.00;;;3.53;;
39434;SDS011;66825;51.880;-0.518;2023-06-10T07:20:59;3.50;;;3.10;;
39434;SDS011;66825;51.880;-0.518;2023-06-10T07:23:24;3.40;;;3.10;;
39434;SDS011;66825;51.880;-0.518;2023-06-10T07:25:50;3.60;;;3.20;;
39434;SDS011;66825;51.880;-0.518;2023-06-10T07:28:15;3.58;;;3.28;;
39434;SDS011;66825;51.880;-0.518;2023-06-10T07:30:41;3.45;;;3.15;;
39434;SDS011;66825;51.880;-0.518;2023-06-10T07:33:06;3.80;;;3.17;;
39434;SDS011;66825;51.880;-0.518;2023-06-10T07:35:32;3.40;;;2.90;;
39434;SDS011;66825;51.880;-0.518;2023-06-10T07:37:58;3.53;;;3.15;;
39434;SDS011;66825;51.880;-0.518;2023-06-10T07:40:23;3.30;;;3.00;;
39434;SDS011;66825;51.880;-0.518;2023-06-10T07:42:49;3.30;;;3.00;;
39434;SDS011;66825;51.880;-0.518;2023-06-10T07:45:15;3.85;;;2.92;;
39434;SDS011;66825;51.880;-0.518;2023-06-10T07:47:42;3.45;;;3.15;;
39434;SDS011;66825;51.880;-0.518;2023-06-10T07:50:08;3.78;;;3.33;;
39434;SDS011;66825;51.880;-0.518;2023-06-10T07:52:33;4.53;;;3.20;;
39434;SDS011;66825;51.880;-0.518;2023-06-10T07:54:59;3.38;;;3.03;;
39434;SDS011;66825;51.880;-0.518;2023-06-10T07:57:25;3.58;;;3.15;;
39434;SDS011;66825;51.880;-0.518;2023-06-10T07:59:50;3.35;;;3.00;;
39434;SDS011;66825;51.880;-0.518;2023-06-10T08:02:16;3.50;;;3.20;;
39434;SDS011;66825;51.880;-0.518;2023-06-10T08:04:41;3.17;;;2.88;;
39434;SDS011;66825;51.880;-0.518;2023-06-10T08:07:07;3.40;;;3.10;;
39434;SDS011;66825;51.880;-0.518;2023-06-10T08:09:32;3.85;;;3.03;;
39434;SDS011;66825;51.880;-0.518;2023-06-10T08:11:58;3.70;;;3.20;;
39434;SDS011;66825;51.880;-0.518;2023-06-10T08:14:23;3.63;;;3.33;;
39434;SDS011;66825;51.880;-0.518;2023-06-10T08:16:49;3.00;;;2.80;;
39434;SDS011;66825;51.880;-0.518;2023-06-10T08:19:14;3.88;;;3.47;;
39434;SDS011;66825;51.880;-0.518;2023-06-10T08:21:40;3.38;;;3.08;;
39434;SDS011;66825;51.880;-0.518;2023-06-10T08:24:06;3.55;;;3.22;;
39434;SDS011;66825;51.880;-0.518;2023-06-10T08:26:32;3.40;;;3.10;;
39434;SDS011;66825;51.880;-0.518;2023-06-10T08:28:57;3.30;;;3.00;;
39434;SDS011;66825;51.880;-0.518;2023-06-10T08:31:23;3.10;;;2.80;;
39434;SDS011;66825;51.880;-0.518;2023-06-10T08:33:48;3.15;;;2.85;;
39434;SDS011;66825;51.880;-0.518;2023-06-10T08:36:14;3.58;;;3.28;;
39434;SDS011;66825;51.880;-0.518;2023-06-10T08:38:40;3.25;;;2.95;;
39434;SDS011;66825;51.880;-0.518;2023-06-10T08:41:05;3.47;;;3.17;;
39434;SDS011;66825;51.880;-0.518;2023-06-10T08:43:54;3.42;;;3.08;;
39434;SDS011;66825;51.880;-0.518;2023-06-10T08:46:28;3.13;;;2.83;;
39434;SDS011;66825;51.880;-0.518;2023-06-10T08:48:56;3.47;;;3.10;;
39434;SDS011;66825;51.880;-0.518;2023-06-10T08:51:27;3.40;;;3.10;;
39434;SDS011;66825;51.880;-0.518;2023-06-10T08:54:01;3.28;;;2.97;;
39434;SDS011;66825;51.880;-0.518;2023-06-10T08:56:30;3.25;;;2.95;;
39434;SDS011;66825;51.880;-0.518;2023-06-10T08:59:02;2.90;;;2.70;;
39434;SDS011;66825;51.880;-0.518;2023-06-10T09:01:28;2.88;;;2.67;;
39434;SDS011;66825;51.880;-0.518;2023-06-10T09:03:54;3.55;;;3.10;;
39434;SDS011;66825;51.880;-0.518;2023-06-10T09:06:19;3.05;;;2.75;;
39434;SDS011;66825;51.880;-0.518;2023-06-10T09:08:45;3.17;;;2.88;;
39434;SDS011;66825;51.880;-0.518;2023-06-10T09:11:11;4.10;;;3.00;;
39434;SDS011;66825;51.880;-0.518;2023-06-10T09:13:37;3.05;;;2.80;;
39434;SDS011;66825;51.880;-0.518;2023-06-10T09:16:02;3.45;;;3.15;;
39434;SDS011;66825;51.880;-0.518;2023-06-10T09:18:28;3.30;;;3.00;;
39434;SDS011;66825;51.880;-0.518;2023-06-10T09:20:54;3.00;;;2.80;;
39434;SDS011;66825;51.880;-0.518;2023-06-10T09:23:19;3.20;;;2.90;;
39434;SDS011;66825;51.880;-0.518;2023-06-10T09:25:44;2.80;;;2.60;;
39434;SDS011;66825;51.880;-0.518;2023-06-10T09:28:14;3.28;;;2.70;;
39434;SDS011;66825;51.880;-0.518;2023-06-10T09:30:40;3.90;;;3.00;;
39434;SDS011;66825;51.880;-0.518;2023-06-10T09:33:10;3.30;;;3.00;;
39434;SDS011;66825;51.880;-0.518;2023-06-10T09:35:37;3.30;;;3.00;;
39434;SDS011;66825;51.880;-0.518;2023-06-10T09:38:10;3.10;;;2.80;;
39434;SDS011;66825;51.880;-0.518;2023-06-10T09:40:48;3.10;;;2.80;;
39434;SDS011;66825;51.880;-0.518;2023-06-10T09:43:17;2.80;;;2.60;;
39434;SDS011;66825;51.880;-0.518;2023-06-10T09:45:43;3.10;;;2.80;;
39434;SDS011;66825;51.880;-0.518;2023-06-10T09:48:08;2.80;;;2.60;;
39434;SDS011;66825;51.880;-0.518;2023-06-10T09:50:34;2.70;;;2.50;;
39434;SDS011;66825;51.880;-0.518;2023-06-10T09:53:00;3.20;;;2.90;;
39434;SDS011;66825;51.880;-0.518;2023-06-10T09:55:27;3.00;;;2.78;;
39434;SDS011;66825;51.880;-0.518;2023-06-10T09:57:53;3.10;;;2.88;;
39434;SDS011;66825;51.880;-0.518;2023-06-10T10:00:19;3.05;;;2.75;;
39434;SDS011;66825;51.880;-0.518;2023-06-10T10:02:51;3.10;;;2.80;;
39434;SDS011;66825;51.880;-0.518;2023-06-10T10:05:22;3.00;;;2.70;;
39434;SDS011;66825;51.880;-0.518;2023-06-10T10:07:47;2.88;;;2.55;;
39434;SDS011;66825;51.880;-0.518;2023-06-10T10:10:14;2.70;;;2.50;;
39434;SDS011;66825;51.880;-0.518;2023-06-10T10:12:41;2.92;;;2.72;;
39434;SDS011;66825;51.880;-0.518;2023-06-10T10:15:09;3.10;;;2.55;;
39434;SDS011;66825;51.880;-0.518;2023-06-10T10:17:37;2.97;;;2.78;;
39434;SDS011;66825;51.880;-0.518;2023-06-10T10:20:08;3.05;;;2.75;;
39434;SDS011;66825;51.880;-0.518;2023-06-10T10:22:38;3.15;;;2.85;;
39434;SDS011;66825;51.880;-0.518;2023-06-10T10:25:16;2.83;;;2.53;;
39434;SDS011;66825;51.880;-0.518;2023-06-10T10:27:51;3.10;;;2.80;;
39434;SDS011;66825;51.880;-0.518;2023-06-10T10:30:20;2.65;;;2.45;;
39434;SDS011;66825;51.880;-0.518;2023-06-10T10:33:00;3.00;;;2.70;;
39434;SDS011;66825;51.880;-0.518;2023-06-10T10:35:30;3.00;;;2.80;;
39434;SDS011;66825;51.880;-0.518;2023-06-10T10:37:58;3.10;;;2.85;;
39434;SDS011;66825;51.880;-0.518;2023-06-10T10:40:23;2.63;;;2.42;;
39434;SDS011;66825;51.880;-0.518;2023-06-10T10:42:50;3.03;;;2.72;;
39434;SDS011;66825;51.880;-0.518;2023-06-10T10:45:17;2.88;;;2.67;;
39434;SDS011;66825;51.880;-0.518;2023-06-10T10:47:45;2.85;;;2.60;;
39434;SDS011;66825;51.880;-0.518;2023-06-10T10:50:14;2.78;;;2.58;;
39434;SDS011;66825;51.880;-0.518;2023-06-10T10:52:55;2.80;;;2.60;;
39434;SDS011;66825;51.880;-0.518;2023-06-10T10:55:26;3.00;;;2.70;;
39434;SDS011;66825;51.880;-0.518;2023-06-10T11:00:32;2.80;;;2.60;;
39434;SDS011;66825;51.880;-0.518;2023-06-10T11:03:06;2.75;;;2.55;;
39434;SDS011;66825;51.880;-0.518;2023-06-10T11:08:02;2.63;;;2.42;;
39434;SDS011;66825;51.880;-0.518;2023-06-10T11:10:29;2.70;;;2.50;;
39434;SDS011;66825;51.880;-0.518;2023-06-10T11:12:56;2.97;;;2.78;;
39434;SDS011;66825;51.880;-0.518;2023-06-10T11:15:26;2.83;;;2.60;;
39434;SDS011;66825;51.880;-0.518;2023-06-10T11:28:42;2.67;;;2.47;;
39434;SDS011;66825;51.880;-0.518;2023-06-10T11:31:27;3.42;;;3.05;;
39434;SDS011;66825;51.880;-0.518;2023-06-10T11:33:58;6.97;;;4.18;;
39434;SDS011;66825;51.880;-0.518;2023-06-10T11:36:25;5.32;;;4.45;;
39434;SDS011;66825;51.880;-0.518;2023-06-10T11:39:01;6.05;;;5.43;;
39434;SDS011;66825;51.880;-0.518;2023-06-10T11:41:28;7.32;;;6.60;;
39434;SDS011;66825;51.880;-0.518;2023-06-10T11:43:56;10.45;;;7.72;;
39434;SDS011;66825;51.880;-0.518;2023-06-10T11:46:22;9.45;;;8.20;;
39434;SDS011;66825;51.880;-0.518;2023-06-10T11:48:51;9.45;;;7.63;;
39434;SDS011;66825;51.880;-0.518;2023-06-10T11:51:18;12.27;;;8.90;;
39434;SDS011;66825;51.880;-0.518;2023-06-10T11:53:44;11.27;;;8.32;;
39434;SDS011;66825;51.880;-0.518;2023-06-10T11:56:10;9.82;;;8.77;;
39434;SDS011;66825;51.880;-0.518;2023-06-10T11:58:36;10.93;;;8.60;;
39434;SDS011;66825;51.880;-0.518;2023-06-10T12:01:01;12.30;;;8.38;;
39434;SDS011;66825;51.880;-0.518;2023-06-10T12:03:27;7.88;;;6.97;;
39434;SDS011;66825;51.880;-0.518;2023-06-10T12:06:03;7.88;;;7.03;;
39434;SDS011;66825;51.880;-0.518;2023-06-10T12:08:30;7.85;;;6.93;;
39434;SDS011;66825;51.880;-0.518;2023-06-10T12:10:57;7.70;;;6.90;;
39434;SDS011;66825;51.880;-0.518;2023-06-10T12:13:25;7.43;;;6.63;;
39434;SDS011;66825;51.880;-0.518;2023-06-10T12:15:52;7.60;;;6.80;;
39434;SDS011;66825;51.880;-0.518;2023-06-10T12:18:21;7.20;;;6.50;;
39434;SDS011;66825;51.880;-0.518;2023-06-10T12:20:48;7.55;;;6.85;;
39434;SDS011;66825;51.880;-0.518;2023-06-10T12:23:15;7.60;;;6.90;;
39434;SDS011;66825;51.880;-0.518;2023-06-10T12:25:51;8.18;;;6.78;;
39434;SDS011;66825;51.880;-0.518;2023-06-10T12:28:21;7.43;;;6.40;;
39434;SDS011;66825;51.880;-0.518;2023-06-10T12:30:46;6.88;;;6.18;;
39434;SDS011;66825;51.880;-0.518;2023-06-10T12:33:21;7.13;;;6.43;;
39434;SDS011;66825;51.880;-0.518;2023-06-10T12:35:47;7.15;;;6.45;;
39434;SDS011;66825;51.880;-0.518;2023-06-10T12:38:14;6.75;;;6.05;;
39434;SDS011;66825;51.880;-0.518;2023-06-10T12:40:46;6.60;;;5.97;;
39434;SDS011;66825;51.880;-0.518;2023-06-10T12:43:12;6.57;;;5.97;;
39434;SDS011;66825;51.880;-0.518;2023-06-10T12:45:39;7.18;;;6.18;;
39434;SDS011;66825;51.880;-0.518;2023-06-10T12:48:12;6.63;;;6.07;;
39434;SDS011;66825;51.880;-0.518;2023-06-10T12:50:39;7.15;;;6.53;;
39434;SDS011;66825;51.880;-0.518;2023-06-10T12:53:05;7.00;;;6.30;;
39434;SDS011;66825;51.880;-0.518;2023-06-10T12:55:32;7.20;;;6.18;;
39434;SDS011;66825;51.880;-0.518;2023-06-10T12:57:58;6.75;;;5.75;;
39434;SDS011;66825;51.880;-0.518;2023-06-10T13:00:25;6.55;;;5.95;;
39434;SDS011;66825;51.880;-0.518;2023-06-10T13:02:52;6.00;;;5.50;;
39434;SDS011;66825;51.880;-0.518;2023-06-10T13:05:20;5.90;;;5.40;;
39434;SDS011;66825;51.880;-0.518;2023-06-10T13:07:46;6.25;;;5.65;;
39434;SDS011;66825;51.880;-0.518;2023-06-10T13:10:13;6.32;;;5.72;;
39434;SDS011;66825;51.880;-0.518;2023-06-10T13:12:39;5.90;;;5.40;;
39434;SDS011;66825;51.880;-0.518;2023-06-10T13:15:05;6.00;;;5.50;;
39434;SDS011;66825;51.880;-0.518;2023-06-10T13:17:31;6.15;;;5.65;;
39434;SDS011;66825;51.880;-0.518;2023-06-10T13:19:59;6.55;;;5.95;;
39434;SDS011;66825;51.880;-0.518;2023-06-10T13:22:26;6.20;;;5.60;;
39434;SDS011;66825;51.880;-0.518;2023-06-10T13:24:52;5.97;;;5.38;;
39434;SDS011;66825;51.880;-0.518;2023-06-10T13:27:17;6.35;;;5.75;;
39434;SDS011;66825;51.880;-0.518;2023-06-10T13:29:43;5.75;;;5.28;;
39434;SDS011;66825;51.880;-0.518;2023-06-10T13:32:08;6.30;;;5.70;;
39434;SDS011;66825;51.880;-0.518;2023-06-10T13:34:35;5.60;;;5.10;;
39434;SDS011;66825;51.880;-0.518;2023-06-10T13:37:01;6.15;;;5.55;;
39434;SDS011;66825;51.880;-0.518;2023-06-10T13:39:29;5.70;;;5.20;;
39434;SDS011;66825;51.880;-0.518;2023-06-10T13:41:54;5.68;;;5.18;;
39434;SDS011;66825;51.880;-0.518;2023-06-10T13:44:20;5.97;;;5.40;;
39434;SDS011;66825;51.880;-0.518;2023-06-10T13:46:45;5.70;;;5.20;;
39434;SDS011;66825;51.880;-0.518;2023-06-10T13:49:11;6.03;;;5.53;;
39434;SDS011;66825;51.880;-0.518;2023-06-10T13:51:37;5.72;;;5.22;;
39434;SDS011;66825;51.880;-0.518;2023-06-10T13:54:02;5.97;;;5.47;;
39434;SDS011;66825;51.880;-0.518;2023-06-10T13:56:28;6.30;;;5.70;;
39434;SDS011;66825;51.880;-0.518;2023-06-10T13:58:53;5.80;;;5.30;;
39434;SDS011;66825;51.880;-0.518;2023-06-10T14:01:19;5.32;;;4.85;;
39434;SDS011;66825;51.880;-0.518;2023-06-10T14:03:44;5.97;;;5.38;;
39434;SDS011;66825;51.880;-0.518;2023-06-10T14:06:10;5.90;;;5.30;;
39434;SDS011;66825;51.880;-0.518;2023-06-10T14:08:38;5.60;;;5.20;;
39434;SDS011;66825;51.880;-0.518;2023-06-10T14:11:03;5.97;;;5.38;;
39434;SDS011;66825;51.880;-0.518;2023-06-10T14:13:29;5.85;;;5.35;;
39434;SDS011;66825;51.880;-0.518;2023-06-10T14:15:54;5.60;;;5.10;;
39434;SDS011;66825;51.880;-0.518;2023-06-10T14:18:20;5.30;;;4.90;;
39434;SDS011;66825;51.880;-0.518;2023-06-10T14:20:45;5.43;;;5.03;;
39434;SDS011;66825;51.880;-0.518;2023-06-10T14:23:11;5.25;;;4.78;;
39434;SDS011;66825;51.880;-0.518;2023-06-10T14:25:36;5.60;;;5.10;;
39434;SDS011;66825;51.880;-0.518;2023-06-10T14:28:02;5.50;;;5.10;;
39434;SDS011;66825;51.880;-0.518;2023-06-10T14:30:28;5.40;;;4.90;;
39434;SDS011;66825;51.880;-0.518;2023-06-10T14:32:53;5.30;;;4.80;;
39434;SDS011;66825;51.880;-0.518;2023-06-10T14:35:18;5.30;;;4.90;;
39434;SDS011;66825;51.880;-0.518;2023-06-10T14:37:45;5.60;;;5.20;;
39434;SDS011;66825;51.880;-0.518;2023-06-10T14:40:10;5.50;;;5.00;;
39434;SDS011;66825;51.880;-0.518;2023-06-10T14:42:36;5.60;;;5.10;;
39434;SDS011;66825;51.880;-0.518;2023-06-10T14:45:02;5.15;;;4.75;;
39434;SDS011;66825;51.880;-0.518;2023-06-10T14:47:27;5.35;;;4.90;;
39434;SDS011;66825;51.880;-0.518;2023-06-10T14:49:53;5.03;;;4.60;;
39434;SDS011;66825;51.880;-0.518;2023-06-10T14:52:18;5.35;;;4.95;;